createdAt,value
2022-08-30T00:01:00.792Z,15.76
2022-08-30T00:03:27.527Z,15.72
2022-08-30T00:05:56.216Z,15.66
2022-08-30T00:08:23.061Z,15.62
2022-08-30T00:10:51.216Z,15.59
2022-08-30T00:13:19.519Z,15.66
2022-08-30T00:15:46.749Z,15.68
2022-08-30T00:18:13.409Z,15.73
2022-08-30T00:20:40.340Z,15.74
2022-08-30T00:23:07.402Z,15.64
2022-08-30T00:25:34.475Z,15.57
2022-08-30T00:28:02.518Z,15.56
2022-08-30T00:30:28.913Z,15.61
2022-08-30T00:32:55.576Z,15.65
2022-08-30T00:35:22.671Z,15.63
2022-08-30T00:37:50.863Z,15.62
2022-08-30T00:40:20.335Z,15.59
2022-08-30T00:42:59.598Z,15.55
2022-08-30T00:45:30.513Z,15.53
2022-08-30T00:47:57.930Z,15.55
2022-08-30T00:50:31.085Z,15.53
2022-08-30T00:53:01.323Z,15.48
2022-08-30T00:55:29.210Z,15.51
2022-08-30T00:58:00.178Z,15.50
2022-08-30T01:00:28.517Z,15.46
2022-08-30T01:02:55.331Z,15.44
2022-08-30T01:05:22.022Z,15.44
2022-08-30T01:07:48.469Z,15.43
2022-08-30T01:10:16.526Z,15.48
2022-08-30T01:12:43.914Z,15.48
2022-08-30T01:15:14.467Z,15.42
2022-08-30T01:17:44.999Z,15.32
2022-08-30T01:20:15.600Z,15.30
2022-08-30T01:22:51.116Z,15.22
2022-08-30T01:25:29.928Z,15.18
2022-08-30T01:28:04.587Z,15.15
2022-08-30T01:30:32.479Z,15.15
2022-08-30T01:33:02.967Z,15.13
2022-08-30T01:35:35.228Z,15.15
2022-08-30T01:38:02.070Z,15.16
2022-08-30T01:40:28.537Z,15.08
2022-08-30T01:42:55.174Z,15.08
2022-08-30T01:45:21.781Z,15.08
2022-08-30T01:47:48.286Z,15.09
2022-08-30T01:50:14.876Z,15.05
2022-08-30T01:52:41.914Z,15.03
2022-08-30T01:55:09.136Z,15.00
2022-08-30T01:57:35.699Z,14.99
2022-08-30T02:00:02.465Z,15.04
2022-08-30T02:02:29.633Z,15.05
2022-08-30T02:04:56.981Z,15.03
2022-08-30T02:07:25.133Z,15.04
2022-08-30T02:09:53.093Z,15.02
2022-08-30T02:12:20.907Z,15.01
2022-08-30T02:14:47.758Z,15.00
2022-08-30T02:17:17.044Z,14.96
2022-08-30T02:19:43.669Z,14.95
2022-08-30T02:22:11.037Z,14.95
2022-08-30T02:24:38.031Z,14.89
2022-08-30T02:27:04.763Z,14.91
2022-08-30T02:29:31.454Z,14.91
2022-08-30T02:31:57.928Z,14.89
2022-08-30T02:34:24.567Z,14.86
2022-08-30T02:36:51.149Z,14.83
2022-08-30T02:39:17.749Z,14.80
2022-08-30T02:41:44.404Z,14.79
2022-08-30T02:44:11.400Z,14.76
2022-08-30T02:46:38.611Z,14.73
2022-08-30T02:49:32.486Z,14.71
2022-08-30T02:51:53.814Z,14.68
2022-08-30T02:54:20.334Z,14.66
2022-08-30T02:56:48.407Z,14.67
2022-08-30T02:59:16.231Z,14.67
2022-08-30T03:01:42.731Z,14.62
2022-08-30T03:04:09.868Z,14.61
2022-08-30T03:06:36.815Z,14.58
2022-08-30T03:09:03.658Z,14.54
2022-08-30T03:11:30.143Z,14.50
2022-08-30T03:13:56.653Z,14.49
2022-08-30T03:16:23.286Z,14.45
2022-08-30T03:18:49.763Z,14.42
2022-08-30T03:21:16.865Z,14.39
2022-08-30T03:23:43.933Z,14.34
2022-08-30T03:26:13.139Z,14.30
2022-08-30T03:28:39.672Z,14.25
2022-08-30T03:31:06.444Z,14.22
2022-08-30T03:33:32.904Z,14.21
2022-08-30T03:35:59.390Z,14.18
2022-08-30T03:38:26.130Z,14.14
2022-08-30T03:40:52.703Z,14.15
2022-08-30T03:43:19.399Z,14.13
2022-08-30T03:45:46.263Z,14.15
2022-08-30T03:48:13.021Z,14.11
2022-08-30T03:50:40.577Z,14.08
2022-08-30T03:53:07.264Z,14.06
2022-08-30T03:55:34.148Z,14.02
2022-08-30T03:58:00.698Z,14.01
2022-08-30T04:00:27.512Z,13.98
2022-08-30T04:02:54.150Z,13.93
2022-08-30T04:05:20.986Z,13.90
2022-08-30T04:07:47.428Z,13.89
2022-08-30T04:10:14.187Z,13.85
2022-08-30T04:12:40.753Z,13.84
2022-08-30T04:15:09.478Z,13.82
2022-08-30T04:17:36.141Z,13.80
2022-08-30T04:20:02.956Z,13.75
2022-08-30T04:22:29.435Z,13.69
2022-08-30T04:24:55.885Z,13.64
2022-08-30T04:27:22.603Z,13.62
2022-08-30T04:29:49.598Z,13.63
2022-08-30T04:32:17.057Z,13.64
2022-08-30T04:34:44.068Z,13.66
2022-08-30T04:37:10.565Z,13.68
2022-08-30T04:39:37.237Z,13.70
2022-08-30T04:42:04.207Z,13.71
2022-08-30T04:44:32.138Z,13.69
2022-08-30T04:46:59.085Z,13.68
2022-08-30T04:49:25.776Z,13.67
2022-08-30T04:51:52.262Z,13.68
2022-08-30T04:54:18.812Z,13.67
2022-08-30T04:56:45.528Z,13.66
2022-08-30T04:59:12.053Z,13.65
2022-08-30T05:01:45.442Z,13.66
2022-08-30T05:04:13.821Z,13.66
2022-08-30T05:06:40.555Z,13.67
2022-08-30T05:09:07.206Z,13.68
2022-08-30T05:11:33.747Z,13.70
2022-08-30T05:14:00.343Z,13.72
2022-08-30T05:16:27.279Z,13.73
2022-08-30T05:18:54.608Z,13.73
2022-08-30T05:21:25.442Z,13.69
2022-08-30T05:23:56.010Z,13.65
2022-08-30T05:26:26.507Z,13.65
2022-08-30T05:28:53.524Z,13.64
2022-08-30T05:31:24.114Z,13.65
2022-08-30T05:33:52.400Z,13.67
2022-08-30T05:36:21.065Z,13.68
2022-08-30T05:38:47.642Z,13.72
2022-08-30T05:41:14.500Z,13.77
2022-08-30T05:43:41.012Z,13.82
2022-08-30T05:46:10.638Z,13.84
2022-08-30T05:48:38.097Z,13.89
2022-08-30T05:51:09.224Z,13.94
2022-08-30T05:53:36.240Z,13.98
2022-08-30T05:56:05.621Z,14.05
2022-08-30T05:58:32.768Z,14.11
2022-08-30T06:00:59.973Z,14.14
2022-08-30T06:03:27.277Z,14.19
2022-08-30T06:05:53.995Z,14.23
2022-08-30T06:08:21.235Z,14.30
2022-08-30T06:10:47.984Z,14.34
2022-08-30T06:13:14.900Z,14.38
2022-08-30T06:15:45.071Z,14.44
2022-08-30T06:18:14.755Z,14.48
2022-08-30T06:20:47.482Z,14.55
2022-08-30T06:23:17.970Z,14.59
2022-08-30T06:25:44.900Z,14.65
2022-08-30T06:28:12.261Z,14.71
2022-08-30T06:30:41.683Z,14.78
2022-08-30T06:33:08.573Z,14.81
2022-08-30T06:35:46.719Z,14.85
2022-08-30T06:38:18.911Z,14.91
2022-08-30T06:40:45.641Z,15.00
2022-08-30T06:43:12.174Z,15.06
2022-08-30T06:45:38.669Z,15.10
2022-08-30T06:48:05.114Z,15.16
2022-08-30T06:50:31.993Z,15.24
2022-08-30T06:53:04.385Z,15.31
2022-08-30T06:55:33.261Z,15.37
2022-08-30T06:58:00.886Z,15.44
2022-08-30T07:00:28.016Z,15.56
2022-08-30T07:02:54.979Z,15.68
2022-08-30T07:05:23.595Z,15.79
2022-08-30T07:07:56.014Z,15.93
2022-08-30T07:10:22.505Z,16.09
2022-08-30T07:12:49.369Z,16.22
2022-08-30T07:15:16.565Z,16.36
2022-08-30T07:18:01.436Z,16.49
2022-08-30T07:20:27.886Z,16.63
2022-08-30T07:23:06.700Z,16.76
2022-08-30T07:25:33.254Z,16.88
2022-08-30T07:27:59.773Z,16.99
2022-08-30T07:30:26.303Z,17.08
2022-08-30T07:32:52.820Z,17.20
2022-08-30T07:35:19.254Z,17.30
2022-08-30T07:37:45.722Z,17.41
2022-08-30T07:40:12.734Z,17.46
2022-08-30T07:42:41.093Z,17.55
2022-08-30T07:45:08.676Z,17.66
2022-08-30T07:47:35.247Z,17.74
2022-08-30T07:50:02.424Z,17.79
2022-08-30T07:52:30.819Z,17.88
2022-08-30T07:54:59.146Z,17.96
2022-08-30T07:57:26.514Z,18.02
2022-08-30T07:59:53.315Z,18.07
2022-08-30T08:02:20.505Z,18.12
2022-08-30T08:04:48.517Z,18.19
2022-08-30T08:07:15.327Z,18.28
2022-08-30T08:09:41.858Z,18.31
2022-08-30T08:12:08.734Z,18.35
2022-08-30T08:14:36.156Z,18.37
2022-08-30T08:17:02.882Z,18.44
2022-08-30T08:19:29.384Z,18.49
2022-08-30T08:22:19.423Z,18.55
2022-08-30T08:24:43.704Z,18.67
2022-08-30T08:27:10.170Z,18.76
2022-08-30T08:29:36.706Z,18.78
2022-08-30T08:32:03.505Z,18.84
2022-08-30T08:34:30.031Z,18.89
2022-08-30T08:36:56.518Z,18.94
2022-08-30T08:39:23.016Z,18.99
2022-08-30T08:42:04.040Z,19.06
2022-08-30T08:44:50.656Z,19.14
2022-08-30T08:47:38.615Z,19.17
2022-08-30T08:50:17.467Z,19.27
2022-08-30T08:53:10.812Z,19.39
2022-08-30T08:55:50.434Z,19.54
2022-08-30T08:58:28.467Z,19.65
2022-08-30T09:00:56.734Z,19.74
2022-08-30T09:03:24.901Z,19.79
2022-08-30T09:05:51.489Z,19.85
2022-08-30T09:08:19.853Z,19.94
2022-08-30T09:10:58.865Z,19.97
2022-08-30T09:13:26.505Z,19.96
2022-08-30T09:15:55.934Z,20.01
2022-08-30T09:18:48.987Z,19.99
2022-08-30T09:21:25.848Z,19.99
2022-08-30T09:24:06.854Z,20.09
2022-08-30T09:26:38.218Z,20.27
2022-08-30T09:29:05.839Z,20.33
2022-08-30T09:31:34.166Z,20.42
2022-08-30T09:34:09.733Z,20.47
2022-08-30T09:36:51.832Z,20.48
2022-08-30T09:39:31.348Z,20.56
2022-08-30T09:42:14.258Z,20.56
2022-08-30T09:44:40.756Z,20.50
2022-08-30T09:47:31.811Z,20.58
2022-08-30T09:50:15.436Z,20.84
2022-08-30T09:52:50.948Z,20.91
2022-08-30T09:55:33.193Z,21.01
2022-08-30T09:58:08.759Z,21.03
2022-08-30T10:00:55.899Z,21.11
2022-08-30T10:03:46.864Z,21.15
2022-08-30T10:06:36.651Z,21.13
2022-08-30T10:09:09.030Z,21.33
2022-08-30T10:11:56.626Z,21.49
2022-08-30T10:14:54.972Z,21.49
2022-08-30T10:17:38.938Z,21.55
2022-08-30T10:20:17.084Z,21.75
2022-08-30T10:23:02.355Z,21.93
2022-08-30T10:25:34.737Z,21.96
2022-08-30T10:28:14.628Z,22.03
2022-08-30T10:30:44.335Z,22.08
2022-08-30T10:33:36.903Z,22.05
2022-08-30T10:36:10.270Z,21.97
2022-08-30T10:38:40.599Z,22.15
2022-08-30T10:41:22.289Z,22.26
2022-08-30T10:44:11.902Z,22.18
2022-08-30T10:47:14.302Z,22.15
2022-08-30T10:49:55.546Z,22.20
2022-08-30T10:52:38.965Z,22.37
2022-08-30T10:55:08.504Z,22.50
2022-08-30T10:57:36.481Z,22.65
2022-08-30T11:00:11.912Z,22.70
2022-08-30T11:02:59.029Z,22.64
2022-08-30T11:05:44.399Z,22.64
2022-08-30T11:08:41.098Z,22.98
2022-08-30T11:11:24.855Z,23.20
2022-08-30T11:13:56.906Z,23.24
2022-08-30T11:16:36.458Z,23.37
2022-08-30T11:19:12.246Z,23.42
2022-08-30T11:21:41.832Z,23.46
2022-08-30T11:24:15.876Z,23.56
2022-08-30T11:26:45.388Z,23.55
2022-08-30T11:29:27.559Z,23.53
2022-08-30T11:31:59.715Z,23.52
2022-08-30T11:34:45.486Z,23.56
2022-08-30T11:37:37.509Z,23.63
2022-08-30T11:40:04.349Z,23.74
2022-08-30T11:42:35.401Z,23.94
2022-08-30T11:45:25.005Z,23.90
2022-08-30T11:47:59.830Z,23.98
2022-08-30T11:50:35.864Z,24.05
2022-08-30T11:53:05.588Z,24.02
2022-08-30T11:55:42.607Z,24.08
2022-08-30T11:58:30.333Z,24.09
2022-08-30T12:01:40.918Z,24.10
2022-08-30T12:04:15.246Z,24.10
2022-08-30T12:06:41.945Z,24.12
2022-08-30T12:09:35.364Z,24.04
2022-08-30T12:12:24.108Z,23.95
2022-08-30T12:14:54.637Z,24.03
2022-08-30T12:17:42.105Z,24.21
2022-08-30T12:20:30.842Z,24.34
2022-08-30T12:23:09.692Z,24.40
2022-08-30T12:25:36.239Z,24.43
2022-08-30T12:28:16.332Z,24.51
2022-08-30T12:30:43.935Z,24.63
2022-08-30T12:33:24.086Z,24.68
2022-08-30T12:35:58.242Z,24.69
2022-08-30T12:38:27.474Z,24.72
2022-08-30T12:40:58.186Z,24.80
2022-08-30T12:43:40.445Z,24.91
2022-08-30T12:46:12.520Z,25.04
2022-08-30T12:48:42.882Z,25.00
2022-08-30T12:51:25.707Z,24.89
2022-08-30T12:53:52.404Z,24.83
2022-08-30T12:56:30.432Z,24.94
2022-08-30T12:59:05.931Z,25.07
2022-08-30T13:01:35.681Z,25.04
2022-08-30T13:04:22.085Z,24.89
2022-08-30T13:06:55.981Z,24.80
2022-08-30T13:09:33.935Z,24.81
2022-08-30T13:12:03.185Z,24.72
2022-08-30T13:14:33.928Z,24.69
2022-08-30T13:17:25.702Z,24.64
2022-08-30T13:19:57.294Z,24.72
2022-08-30T13:22:31.730Z,24.68
2022-08-30T13:24:59.140Z,24.62
2022-08-30T13:27:26.789Z,24.61
2022-08-30T13:29:53.712Z,24.54
2022-08-30T13:32:21.183Z,24.51
2022-08-30T13:34:47.810Z,24.56
2022-08-30T13:40:13.378Z,24.72
2022-08-30T13:42:42.996Z,24.72
2022-08-30T13:47:57.706Z,24.97
2022-08-30T13:50:24.251Z,24.92
2022-08-30T13:52:52.247Z,24.85
2022-08-30T13:55:18.750Z,24.81
2022-08-30T13:57:54.391Z,24.82
2022-08-30T14:00:22.359Z,24.89
2022-08-30T14:02:54.259Z,24.96
2022-08-30T14:11:07.005Z,25.06
2022-08-30T14:13:33.835Z,25.13
2022-08-30T14:18:51.241Z,25.12
2022-08-30T14:21:18.031Z,25.00
2022-08-30T14:23:48.313Z,24.98
2022-08-30T14:26:22.546Z,24.76
2022-08-30T14:28:51.576Z,24.67
2022-08-30T14:31:19.979Z,24.80
2022-08-30T14:33:47.114Z,24.66
2022-08-30T14:36:15.280Z,24.60
2022-08-30T14:38:42.987Z,24.50
2022-08-30T14:41:10.809Z,24.51
2022-08-30T14:43:39.640Z,24.37
2022-08-30T14:46:06.332Z,24.41
2022-08-30T14:48:32.885Z,24.50
2022-08-30T14:50:59.466Z,24.56
2022-08-30T14:53:26.439Z,24.52
2022-08-30T14:55:52.969Z,24.46
2022-08-30T14:58:19.521Z,24.41
2022-08-30T15:00:52.856Z,24.35
2022-08-30T15:03:19.586Z,24.33
2022-08-30T15:05:52.869Z,24.28
2022-08-30T15:08:19.911Z,24.26
2022-08-30T15:10:47.429Z,24.29
2022-08-30T15:13:14.734Z,24.34
2022-08-30T15:15:44.275Z,24.15
2022-08-30T15:18:10.887Z,24.06
2022-08-30T15:20:37.833Z,24.09
2022-08-30T15:23:05.004Z,24.04
2022-08-30T15:25:31.906Z,23.97
2022-08-30T15:27:58.555Z,23.99
2022-08-30T15:30:25.234Z,24.00
2022-08-30T15:32:51.940Z,24.02
2022-08-30T15:35:18.703Z,24.04
2022-08-30T15:37:45.414Z,24.02
2022-08-30T15:40:12.646Z,24.00
2022-08-30T15:42:39.901Z,24.01
2022-08-30T15:45:09.589Z,23.99
2022-08-30T15:47:36.365Z,23.98
2022-08-30T15:50:06.595Z,24.01
2022-08-30T15:52:33.756Z,23.97
2022-08-30T15:55:00.300Z,23.85
2022-08-30T15:57:26.858Z,23.82
2022-08-30T15:59:54.673Z,23.75
2022-08-30T16:02:22.228Z,23.73
2022-08-30T16:04:54.338Z,23.76
2022-08-30T16:07:20.868Z,23.72
2022-08-30T16:09:47.484Z,23.66
2022-08-30T16:12:22.315Z,23.61
2022-08-30T16:14:50.819Z,23.62
2022-08-30T16:17:17.555Z,23.61
2022-08-30T16:19:44.958Z,23.58
2022-08-30T16:22:11.787Z,23.56
2022-08-30T16:24:38.799Z,23.55
2022-08-30T16:27:05.753Z,23.54
2022-08-30T16:29:35.474Z,23.54
2022-08-30T16:32:02.109Z,23.50
2022-08-30T16:34:28.755Z,23.48
2022-08-30T16:36:55.427Z,23.43
2022-08-30T16:39:22.292Z,23.38
2022-08-30T16:41:48.930Z,23.34
2022-08-30T16:44:17.925Z,23.32
2022-08-30T16:46:53.367Z,23.23
2022-08-30T16:49:20.908Z,23.15
2022-08-30T16:51:49.697Z,23.09
2022-08-30T16:54:19.864Z,23.01
2022-08-30T16:56:46.432Z,22.87
2022-08-30T16:59:13.691Z,22.85
2022-08-30T17:01:42.413Z,22.78
2022-08-30T17:04:09.737Z,22.72
2022-08-30T17:06:37.086Z,22.61
2022-08-30T17:09:07.786Z,22.54
2022-08-30T17:11:36.023Z,22.52
2022-08-30T17:14:03.640Z,22.51
2022-08-30T17:16:30.330Z,22.46
2022-08-30T17:19:00.350Z,22.46
2022-08-30T17:21:28.829Z,22.40
2022-08-30T17:24:01.371Z,22.35
2022-08-30T17:26:29.359Z,22.28
2022-08-30T17:28:55.939Z,22.27
2022-08-30T17:31:22.574Z,22.19
2022-08-30T17:33:50.031Z,22.17
2022-08-30T17:36:16.536Z,22.09
2022-08-30T17:38:45.071Z,21.89
2022-08-30T17:41:29.378Z,21.91
2022-08-30T17:43:58.393Z,21.90
2022-08-30T17:46:25.299Z,21.90
2022-08-30T17:48:58.047Z,21.78
2022-08-30T17:51:29.703Z,21.75
2022-08-30T17:53:56.654Z,21.63
2022-08-30T17:56:24.321Z,21.58
2022-08-30T17:59:00.879Z,21.50
2022-08-30T18:01:28.225Z,21.49
2022-08-30T18:04:01.826Z,21.43
2022-08-30T18:06:28.754Z,21.35
2022-08-30T18:08:55.441Z,21.30
2022-08-30T18:11:22.056Z,21.22
2022-08-30T18:13:48.490Z,21.14
2022-08-30T18:16:15.055Z,21.12
2022-08-30T18:18:49.976Z,21.11
2022-08-30T18:21:22.008Z,21.09
2022-08-30T18:23:50.010Z,21.00
2022-08-30T18:26:18.970Z,20.91
2022-08-30T18:28:50.700Z,20.82
2022-08-30T18:31:17.301Z,20.80
2022-08-30T18:33:44.681Z,20.80
2022-08-30T18:36:11.908Z,20.75
2022-08-30T18:38:39.379Z,20.70
2022-08-30T18:41:08.888Z,20.65
2022-08-30T18:43:36.780Z,20.62
2022-08-30T18:46:06.342Z,20.55
2022-08-30T18:48:34.284Z,20.48
2022-08-30T18:51:01.891Z,20.39
2022-08-30T18:53:29.438Z,20.33
2022-08-30T18:55:57.170Z,20.27
2022-08-30T18:58:23.680Z,20.23
2022-08-30T19:00:50.757Z,20.12
2022-08-30T19:03:18.768Z,20.08
2022-08-30T19:05:45.276Z,20.03
2022-08-30T19:08:11.801Z,19.93
2022-08-30T19:10:38.412Z,19.90
2022-08-30T19:13:06.287Z,19.89
2022-08-30T19:15:36.463Z,19.84
2022-08-30T19:18:16.679Z,19.77
2022-08-30T19:20:45.222Z,19.67
2022-08-30T19:23:12.215Z,19.61
2022-08-30T19:25:41.830Z,19.59
2022-08-30T19:28:09.276Z,19.55
2022-08-30T19:30:36.219Z,19.50
2022-08-30T19:33:03.142Z,19.44
2022-08-30T19:35:30.130Z,19.38
2022-08-30T19:37:56.999Z,19.32
2022-08-30T19:40:23.561Z,19.28
2022-08-30T19:42:52.268Z,19.26
2022-08-30T19:45:21.647Z,19.16
2022-08-30T19:47:49.459Z,19.11
2022-08-30T19:50:16.780Z,19.08
2022-08-30T19:52:44.604Z,19.06
2022-08-30T19:55:13.534Z,19.02
2022-08-30T19:57:42.962Z,18.92
2022-08-30T20:00:11.244Z,18.91
2022-08-30T20:02:38.629Z,18.91
2022-08-30T20:05:05.760Z,18.85
2022-08-30T20:07:36.071Z,18.82
2022-08-30T20:10:09.813Z,18.87
2022-08-30T20:12:37.165Z,18.86
2022-08-30T20:15:09.239Z,18.83
2022-08-30T20:18:01.947Z,18.78
2022-08-30T20:20:23.588Z,18.77
2022-08-30T20:22:54.251Z,18.74
2022-08-30T20:25:21.772Z,18.63
2022-08-30T20:27:49.166Z,18.53
2022-08-30T20:30:17.447Z,18.47
2022-08-30T20:32:46.596Z,18.46
2022-08-30T20:35:15.077Z,18.41
2022-08-30T20:37:43.275Z,18.35
2022-08-30T20:40:15.539Z,18.35
2022-08-30T20:42:44.467Z,18.27
2022-08-30T20:45:13.833Z,18.23
2022-08-30T20:47:41.758Z,18.22
2022-08-30T20:50:13.423Z,18.21
2022-08-30T20:52:40.500Z,18.15
2022-08-30T20:55:07.988Z,18.12
2022-08-30T20:57:34.597Z,18.08
2022-08-30T21:00:01.775Z,18.05
2022-08-30T21:02:28.486Z,18.05
2022-08-30T21:04:55.072Z,17.97
2022-08-30T21:07:21.614Z,17.96
2022-08-30T21:09:48.156Z,17.96
2022-08-30T21:12:14.684Z,17.96
2022-08-30T21:14:41.177Z,17.93
2022-08-30T21:17:07.787Z,17.89
2022-08-30T21:19:34.323Z,17.85
2022-08-30T21:22:01.683Z,17.81
2022-08-30T21:24:28.174Z,17.81
2022-08-30T21:26:55.782Z,17.75
2022-08-30T21:29:22.562Z,17.71
2022-08-30T21:31:49.048Z,17.68
2022-08-30T21:34:17.424Z,17.62
2022-08-30T21:36:47.349Z,17.53
2022-08-30T21:39:26.515Z,17.52
2022-08-30T21:41:57.030Z,17.52
2022-08-30T21:44:26.233Z,17.51
2022-08-30T21:46:54.954Z,17.43
2022-08-30T21:49:23.579Z,17.38
2022-08-30T21:51:52.419Z,17.35
2022-08-30T21:54:19.561Z,17.32
2022-08-30T21:56:47.929Z,17.31
2022-08-30T21:59:14.805Z,17.29
2022-08-30T22:01:43.168Z,17.27
2022-08-30T22:04:10.761Z,17.21
2022-08-30T22:06:39.986Z,17.13
2022-08-30T22:09:09.659Z,17.07
2022-08-30T22:11:36.965Z,17.03
2022-08-30T22:14:05.511Z,17.04
2022-08-30T22:16:32.683Z,17.03
2022-08-30T22:18:59.443Z,16.93
2022-08-30T22:21:29.048Z,16.90
2022-08-30T22:23:56.251Z,16.88
2022-08-30T22:26:24.388Z,16.86
2022-08-30T22:28:52.439Z,16.80
2022-08-30T22:31:19.716Z,16.77
2022-08-30T22:33:47.966Z,16.80
2022-08-30T22:36:19.065Z,16.74
2022-08-30T22:38:45.656Z,16.70
2022-08-30T22:41:17.047Z,16.69
2022-08-30T22:43:44.403Z,16.70
2022-08-30T22:46:11.799Z,16.63
2022-08-30T22:48:41.263Z,16.56
2022-08-30T22:51:08.277Z,16.51
2022-08-30T22:53:35.308Z,16.48
2022-08-30T22:56:10.570Z,16.46
2022-08-30T22:58:37.498Z,16.43
2022-08-30T23:01:05.510Z,16.37
2022-08-30T23:03:32.650Z,16.35
2022-08-30T23:06:01.697Z,16.32
2022-08-30T23:08:28.454Z,16.29
2022-08-30T23:10:57.860Z,16.24
2022-08-30T23:13:25.006Z,16.21
2022-08-30T23:15:51.785Z,16.20
2022-08-30T23:18:18.433Z,16.16
2022-08-30T23:20:45.469Z,16.09
2022-08-30T23:23:30.874Z,16.04
2022-08-30T23:26:19.364Z,15.98
2022-08-30T23:29:04.729Z,15.97
2022-08-30T23:31:49.876Z,16.00
2022-08-30T23:34:34.945Z,15.97
2022-08-30T23:37:19.757Z,15.97
2022-08-30T23:40:04.862Z,15.90
2022-08-30T23:42:49.924Z,15.86
2022-08-30T23:45:35.678Z,15.83
2022-08-30T23:48:20.905Z,15.80
2022-08-30T23:51:06.098Z,15.81
2022-08-30T23:53:51.121Z,15.77
2022-08-30T23:56:36.641Z,15.75
2022-08-30T23:59:21.812Z,15.73
